sensor_id;sensor_type;location;lat;lon;timestamp;P1;durP1;ratioP1;P2;durP2;ratioP2
40284;SDS011;25997;50.214;19.354;2024-02-26T00:01:32;94.57;;;67.75;;
40284;SDS011;25997;50.214;19.354;2024-02-26T00:04:35;92.45;;;67.53;;
40284;SDS011;25997;50.214;19.354;2024-02-26T00:07:37;28.75;;;20.25;;
40284;SDS011;25997;50.214;19.354;2024-02-26T00:10:40;21.77;;;14.85;;
40284;SDS011;25997;50.214;19.354;2024-02-26T00:13:43;14.80;;;11.13;;
40284;SDS011;25997;50.214;19.354;2024-02-26T00:16:47;12.60;;;8.88;;
40284;SDS011;25997;50.214;19.354;2024-02-26T00:19:49;12.00;;;8.52;;
40284;SDS011;25997;50.214;19.354;2024-02-26T00:22:52;13.63;;;7.80;;
40284;SDS011;25997;50.214;19.354;2024-02-26T00:25:54;11.13;;;7.35;;
40284;SDS011;25997;50.214;19.354;2024-02-26T00:28:56;11.38;;;7.60;;
40284;SDS011;25997;50.214;19.354;2024-02-26T00:32:00;12.63;;;7.10;;
40284;SDS011;25997;50.214;19.354;2024-02-26T00:35:03;10.32;;;7.25;;
40284;SDS011;25997;50.214;19.354;2024-02-26T00:38:05;9.35;;;7.28;;
40284;SDS011;25997;50.214;19.354;2024-02-26T00:41:08;11.05;;;7.07;;
40284;SDS011;25997;50.214;19.354;2024-02-26T00:44:10;9.13;;;7.28;;
40284;SDS011;25997;50.214;19.354;2024-02-26T00:47:14;10.10;;;7.18;;
40284;SDS011;25997;50.214;19.354;2024-02-26T00:50:17;7.47;;;6.13;;
40284;SDS011;25997;50.214;19.354;2024-02-26T00:53:19;9.82;;;7.50;;
40284;SDS011;25997;50.214;19.354;2024-02-26T00:56:21;63.05;;;44.50;;
40284;SDS011;25997;50.214;19.354;2024-02-26T00:59:24;83.80;;;60.20;;
40284;SDS011;25997;50.214;19.354;2024-02-26T01:02:28;82.57;;;57.20;;
40284;SDS011;25997;50.214;19.354;2024-02-26T01:05:30;105.13;;;75.50;;
40284;SDS011;25997;50.214;19.354;2024-02-26T01:08:34;88.85;;;69.03;;
40284;SDS011;25997;50.214;19.354;2024-02-26T01:11:38;97.90;;;71.32;;
40284;SDS011;25997;50.214;19.354;2024-02-26T01:14:40;79.05;;;57.30;;
40284;SDS011;25997;50.214;19.354;2024-02-26T01:17:44;22.80;;;18.85;;
40284;SDS011;25997;50.214;19.354;2024-02-26T01:20:47;20.02;;;14.02;;
40284;SDS011;25997;50.214;19.354;2024-02-26T01:23:49;19.95;;;15.10;;
40284;SDS011;25997;50.214;19.354;2024-02-26T01:30:09;19.60;;;12.18;;
40284;SDS011;25997;50.214;19.354;2024-02-26T01:33:14;14.00;;;10.40;;
40284;SDS011;25997;50.214;19.354;2024-02-26T01:36:16;12.10;;;9.65;;
40284;SDS011;25997;50.214;19.354;2024-02-26T01:39:20;12.98;;;8.52;;
40284;SDS011;25997;50.214;19.354;2024-02-26T01:42:22;11.98;;;9.18;;
40284;SDS011;25997;50.214;19.354;2024-02-26T01:45:25;71.47;;;53.33;;
40284;SDS011;25997;50.214;19.354;2024-02-26T01:48:30;84.47;;;61.63;;
40284;SDS011;25997;50.214;19.354;2024-02-26T01:51:33;84.82;;;61.42;;
40284;SDS011;25997;50.214;19.354;2024-02-26T01:54:37;77.80;;;56.35;;
40284;SDS011;25997;50.214;19.354;2024-02-26T01:57:40;70.53;;;50.58;;
40284;SDS011;25997;50.214;19.354;2024-02-26T02:00:44;61.30;;;43.65;;
40284;SDS011;25997;50.214;19.354;2024-02-26T02:03:48;58.63;;;40.28;;
40284;SDS011;25997;50.214;19.354;2024-02-26T02:06:50;52.15;;;36.28;;
40284;SDS011;25997;50.214;19.354;2024-02-26T02:09:54;33.20;;;25.25;;
40284;SDS011;25997;50.214;19.354;2024-02-26T02:12:56;25.35;;;18.15;;
40284;SDS011;25997;50.214;19.354;2024-02-26T02:15:59;27.65;;;19.13;;
40284;SDS011;25997;50.214;19.354;2024-02-26T02:19:03;14.82;;;10.23;;
40284;SDS011;25997;50.214;19.354;2024-02-26T02:22:07;13.82;;;10.10;;
40284;SDS011;25997;50.214;19.354;2024-02-26T02:25:09;12.35;;;8.00;;
40284;SDS011;25997;50.214;19.354;2024-02-26T02:28:11;11.43;;;8.95;;
40284;SDS011;25997;50.214;19.354;2024-02-26T02:31:14;11.75;;;9.07;;
40284;SDS011;25997;50.214;19.354;2024-02-26T02:34:17;43.28;;;27.55;;
40284;SDS011;25997;50.214;19.354;2024-02-26T02:37:21;69.55;;;52.13;;
40284;SDS011;25997;50.214;19.354;2024-02-26T02:40:24;74.88;;;51.72;;
40284;SDS011;25997;50.214;19.354;2024-02-26T02:43:26;77.82;;;52.85;;
40284;SDS011;25997;50.214;19.354;2024-02-26T02:46:29;65.30;;;45.28;;
40284;SDS011;25997;50.214;19.354;2024-02-26T02:49:34;64.00;;;43.90;;
40284;SDS011;25997;50.214;19.354;2024-02-26T02:52:40;36.97;;;26.42;;
40284;SDS011;25997;50.214;19.354;2024-02-26T02:55:43;15.77;;;12.15;;
40284;SDS011;25997;50.214;19.354;2024-02-26T02:58:45;16.20;;;12.23;;
40284;SDS011;25997;50.214;19.354;2024-02-26T03:01:48;12.00;;;9.10;;
40284;SDS011;25997;50.214;19.354;2024-02-26T03:04:51;10.70;;;8.10;;
40284;SDS011;25997;50.214;19.354;2024-02-26T03:07:55;16.00;;;10.00;;
40284;SDS011;25997;50.214;19.354;2024-02-26T03:10:58;65.78;;;52.15;;
40284;SDS011;25997;50.214;19.354;2024-02-26T03:14:01;81.07;;;58.42;;
40284;SDS011;25997;50.214;19.354;2024-02-26T03:17:03;42.78;;;31.95;;
40284;SDS011;25997;50.214;19.354;2024-02-26T03:20:07;31.20;;;24.60;;
40284;SDS011;25997;50.214;19.354;2024-02-26T03:23:12;26.00;;;22.95;;
40284;SDS011;25997;50.214;19.354;2024-02-26T03:26:16;17.20;;;13.23;;
40284;SDS011;25997;50.214;19.354;2024-02-26T03:29:19;14.18;;;11.35;;
40284;SDS011;25997;50.214;19.354;2024-02-26T03:32:21;12.75;;;9.40;;
40284;SDS011;25997;50.214;19.354;2024-02-26T03:35:24;12.55;;;8.13;;
40284;SDS011;25997;50.214;19.354;2024-02-26T03:38:28;11.13;;;8.30;;
40284;SDS011;25997;50.214;19.354;2024-02-26T03:41:30;11.30;;;8.07;;
40284;SDS011;25997;50.214;19.354;2024-02-26T03:44:33;13.65;;;9.57;;
40284;SDS011;25997;50.214;19.354;2024-02-26T03:47:37;22.90;;;17.45;;
40284;SDS011;25997;50.214;19.354;2024-02-26T03:50:40;24.95;;;17.10;;
40284;SDS011;25997;50.214;19.354;2024-02-26T03:53:44;114.05;;;77.13;;
40284;SDS011;25997;50.214;19.354;2024-02-26T03:56:46;208.48;;;115.82;;
40284;SDS011;25997;50.214;19.354;2024-02-26T03:59:49;57.90;;;41.88;;
40284;SDS011;25997;50.214;19.354;2024-02-26T04:02:51;67.00;;;44.80;;
40284;SDS011;25997;50.214;19.354;2024-02-26T04:05:54;71.97;;;48.40;;
40284;SDS011;25997;50.214;19.354;2024-02-26T04:08:58;55.53;;;37.45;;
40284;SDS011;25997;50.214;19.354;2024-02-26T04:12:00;40.13;;;26.50;;
40284;SDS011;25997;50.214;19.354;2024-02-26T04:15:03;30.02;;;20.95;;
40284;SDS011;25997;50.214;19.354;2024-02-26T04:18:06;24.33;;;16.52;;
40284;SDS011;25997;50.214;19.354;2024-02-26T04:21:08;27.40;;;14.15;;
40284;SDS011;25997;50.214;19.354;2024-02-26T04:24:12;51.70;;;36.25;;
40284;SDS011;25997;50.214;19.354;2024-02-26T04:27:15;196.18;;;118.30;;
40284;SDS011;25997;50.214;19.354;2024-02-26T04:30:17;205.07;;;124.65;;
40284;SDS011;25997;50.214;19.354;2024-02-26T04:33:20;141.35;;;86.25;;
40284;SDS011;25997;50.214;19.354;2024-02-26T04:36:22;108.40;;;73.63;;
40284;SDS011;25997;50.214;19.354;2024-02-26T04:39:27;106.97;;;75.07;;
40284;SDS011;25997;50.214;19.354;2024-02-26T04:42:30;108.78;;;69.88;;
40284;SDS011;25997;50.214;19.354;2024-02-26T04:45:32;95.20;;;61.47;;
40284;SDS011;25997;50.214;19.354;2024-02-26T04:48:35;100.68;;;62.90;;
40284;SDS011;25997;50.214;19.354;2024-02-26T04:51:38;66.45;;;41.90;;
40284;SDS011;25997;50.214;19.354;2024-02-26T04:54:42;30.98;;;20.38;;
40284;SDS011;25997;50.214;19.354;2024-02-26T04:57:45;13.60;;;10.23;;
40284;SDS011;25997;50.214;19.354;2024-02-26T05:00:47;10.73;;;8.38;;
40284;SDS011;25997;50.214;19.354;2024-02-26T05:03:50;13.32;;;8.27;;
40284;SDS011;25997;50.214;19.354;2024-02-26T05:06:52;10.00;;;7.18;;
40284;SDS011;25997;50.214;19.354;2024-02-26T05:09:56;12.48;;;6.65;;
40284;SDS011;25997;50.214;19.354;2024-02-26T05:12:59;9.45;;;6.60;;
40284;SDS011;25997;50.214;19.354;2024-02-26T05:16:02;8.25;;;6.05;;
40284;SDS011;25997;50.214;19.354;2024-02-26T05:19:05;8.10;;;6.00;;
40284;SDS011;25997;50.214;19.354;2024-02-26T05:22:07;9.48;;;6.15;;
40284;SDS011;25997;50.214;19.354;2024-02-26T05:25:11;8.70;;;5.68;;
40284;SDS011;25997;50.214;19.354;2024-02-26T05:28:13;8.07;;;5.55;;
40284;SDS011;25997;50.214;19.354;2024-02-26T05:31:17;7.00;;;5.85;;
40284;SDS011;25997;50.214;19.354;2024-02-26T05:34:19;7.95;;;6.10;;
40284;SDS011;25997;50.214;19.354;2024-02-26T05:37:22;10.45;;;7.07;;
40284;SDS011;25997;50.214;19.354;2024-02-26T05:40:26;9.20;;;6.72;;
40284;SDS011;25997;50.214;19.354;2024-02-26T05:43:29;20.40;;;11.73;;
40284;SDS011;25997;50.214;19.354;2024-02-26T05:46:31;215.10;;;118.68;;
40284;SDS011;25997;50.214;19.354;2024-02-26T05:49:33;96.65;;;50.90;;
40284;SDS011;25997;50.214;19.354;2024-02-26T05:52:36;46.67;;;27.15;;
40284;SDS011;25997;50.214;19.354;2024-02-26T05:55:40;77.75;;;43.28;;
40284;SDS011;25997;50.214;19.354;2024-02-26T05:58:43;147.15;;;99.30;;
40284;SDS011;25997;50.214;19.354;2024-02-26T06:01:45;39.35;;;27.08;;
40284;SDS011;25997;50.214;19.354;2024-02-26T06:04:47;38.70;;;23.25;;
40284;SDS011;25997;50.214;19.354;2024-02-26T06:07:51;30.98;;;21.95;;
40284;SDS011;25997;50.214;19.354;2024-02-26T06:10:55;101.15;;;64.88;;
40284;SDS011;25997;50.214;19.354;2024-02-26T06:13:58;160.07;;;105.95;;
40284;SDS011;25997;50.214;19.354;2024-02-26T06:17:00;163.02;;;114.95;;
40284;SDS011;25997;50.214;19.354;2024-02-26T06:20:03;194.65;;;127.43;;
40284;SDS011;25997;50.214;19.354;2024-02-26T06:23:07;203.32;;;139.00;;
40284;SDS011;25997;50.214;19.354;2024-02-26T06:26:12;129.30;;;99.43;;
40284;SDS011;25997;50.214;19.354;2024-02-26T06:29:14;81.63;;;62.28;;
40284;SDS011;25997;50.214;19.354;2024-02-26T06:32:17;78.07;;;57.50;;
40284;SDS011;25997;50.214;19.354;2024-02-26T06:35:19;78.05;;;63.47;;
40284;SDS011;25997;50.214;19.354;2024-02-26T06:38:21;56.95;;;40.58;;
40284;SDS011;25997;50.214;19.354;2024-02-26T06:41:25;45.35;;;37.60;;
40284;SDS011;25997;50.214;19.354;2024-02-26T06:44:30;53.53;;;43.65;;
40284;SDS011;25997;50.214;19.354;2024-02-26T06:47:33;38.58;;;31.25;;
40284;SDS011;25997;50.214;19.354;2024-02-26T06:50:35;34.20;;;27.17;;
40284;SDS011;25997;50.214;19.354;2024-02-26T06:53:38;32.22;;;28.45;;
40284;SDS011;25997;50.214;19.354;2024-02-26T06:56:41;42.20;;;30.70;;
40284;SDS011;25997;50.214;19.354;2024-02-26T06:59:44;32.50;;;26.70;;
40284;SDS011;25997;50.214;19.354;2024-02-26T07:02:47;37.67;;;31.45;;
40284;SDS011;25997;50.214;19.354;2024-02-26T07:05:50;30.27;;;24.25;;
40284;SDS011;25997;50.214;19.354;2024-02-26T07:08:54;24.33;;;20.33;;
40284;SDS011;25997;50.214;19.354;2024-02-26T07:11:58;17.90;;;14.80;;
40284;SDS011;25997;50.214;19.354;2024-02-26T07:15:00;22.55;;;15.55;;
40284;SDS011;25997;50.214;19.354;2024-02-26T07:18:03;32.72;;;24.45;;
40284;SDS011;25997;50.214;19.354;2024-02-26T07:21:06;33.88;;;26.95;;
40284;SDS011;25997;50.214;19.354;2024-02-26T07:24:08;31.30;;;25.17;;
40284;SDS011;25997;50.214;19.354;2024-02-26T07:27:12;29.65;;;22.73;;
40284;SDS011;25997;50.214;19.354;2024-02-26T07:30:15;62.42;;;46.03;;
40284;SDS011;25997;50.214;19.354;2024-02-26T07:33:17;53.92;;;43.42;;
40284;SDS011;25997;50.214;19.354;2024-02-26T07:36:20;42.97;;;37.25;;
40284;SDS011;25997;50.214;19.354;2024-02-26T07:39:22;46.10;;;39.40;;
40284;SDS011;25997;50.214;19.354;2024-02-26T07:42:26;47.55;;;39.60;;
40284;SDS011;25997;50.214;19.354;2024-02-26T07:45:28;49.58;;;43.15;;
40284;SDS011;25997;50.214;19.354;2024-02-26T07:48:31;51.15;;;41.60;;
40284;SDS011;25997;50.214;19.354;2024-02-26T07:51:34;32.40;;;27.65;;
40284;SDS011;25997;50.214;19.354;2024-02-26T07:54:36;27.38;;;20.67;;
40284;SDS011;25997;50.214;19.354;2024-02-26T07:57:42;24.98;;;20.10;;
40284;SDS011;25997;50.214;19.354;2024-02-26T08:00:45;34.40;;;26.55;;
40284;SDS011;25997;50.214;19.354;2024-02-26T08:03:47;39.22;;;31.30;;
40284;SDS011;25997;50.214;19.354;2024-02-26T08:06:50;44.00;;;34.75;;
40284;SDS011;25997;50.214;19.354;2024-02-26T08:09:52;32.45;;;28.08;;
40284;SDS011;25997;50.214;19.354;2024-02-26T08:12:56;54.22;;;44.22;;
40284;SDS011;25997;50.214;19.354;2024-02-26T08:16:05;57.60;;;47.38;;
40284;SDS011;25997;50.214;19.354;2024-02-26T08:19:08;49.35;;;43.78;;
40284;SDS011;25997;50.214;19.354;2024-02-26T08:22:13;49.42;;;41.40;;
40284;SDS011;25997;50.214;19.354;2024-02-26T08:25:18;46.53;;;36.90;;
40284;SDS011;25997;50.214;19.354;2024-02-26T08:28:22;44.15;;;35.47;;
40284;SDS011;25997;50.214;19.354;2024-02-26T08:31:25;38.88;;;34.65;;
40284;SDS011;25997;50.214;19.354;2024-02-26T08:34:28;32.70;;;27.33;;
40284;SDS011;25997;50.214;19.354;2024-02-26T08:37:30;15.27;;;12.75;;
40284;SDS011;25997;50.214;19.354;2024-02-26T08:40:33;7.93;;;6.88;;
40284;SDS011;25997;50.214;19.354;2024-02-26T08:43:36;6.82;;;5.10;;
40284;SDS011;25997;50.214;19.354;2024-02-26T08:46:39;6.00;;;4.25;;
40284;SDS011;25997;50.214;19.354;2024-02-26T08:49:42;6.03;;;4.10;;
40284;SDS011;25997;50.214;19.354;2024-02-26T08:52:45;5.32;;;4.32;;
40284;SDS011;25997;50.214;19.354;2024-02-26T08:55:51;7.05;;;4.20;;
40284;SDS011;25997;50.214;19.354;2024-02-26T08:58:55;9.52;;;6.88;;
40284;SDS011;25997;50.214;19.354;2024-02-26T09:01:58;5.88;;;4.43;;
40284;SDS011;25997;50.214;19.354;2024-02-26T09:05:00;6.45;;;5.35;;
40284;SDS011;25997;50.214;19.354;2024-02-26T09:08:03;5.00;;;4.43;;
40284;SDS011;25997;50.214;19.354;2024-02-26T09:11:06;7.45;;;4.25;;
40284;SDS011;25997;50.214;19.354;2024-02-26T09:14:12;7.28;;;4.60;;
40284;SDS011;25997;50.214;19.354;2024-02-26T09:17:14;5.55;;;4.30;;
40284;SDS011;25997;50.214;19.354;2024-02-26T09:20:17;7.28;;;4.93;;
40284;SDS011;25997;50.214;19.354;2024-02-26T09:23:20;6.90;;;4.45;;
40284;SDS011;25997;50.214;19.354;2024-02-26T09:26:23;5.55;;;4.00;;
40284;SDS011;25997;50.214;19.354;2024-02-26T09:29:27;5.38;;;3.70;;
40284;SDS011;25997;50.214;19.354;2024-02-26T09:32:29;5.70;;;3.80;;
40284;SDS011;25997;50.214;19.354;2024-02-26T09:35:32;5.22;;;3.55;;
40284;SDS011;25997;50.214;19.354;2024-02-26T09:38:34;5.72;;;3.35;;
40284;SDS011;25997;50.214;19.354;2024-02-26T09:41:38;4.15;;;2.80;;
40284;SDS011;25997;50.214;19.354;2024-02-26T09:44:42;4.63;;;3.50;;
40284;SDS011;25997;50.214;19.354;2024-02-26T09:47:46;3.13;;;2.47;;
40284;SDS011;25997;50.214;19.354;2024-02-26T09:50:50;3.65;;;2.72;;
40284;SDS011;25997;50.214;19.354;2024-02-26T09:53:53;4.47;;;2.47;;
40284;SDS011;25997;50.214;19.354;2024-02-26T09:56:56;3.05;;;1.98;;
40284;SDS011;25997;50.214;19.354;2024-02-26T10:00:05;2.58;;;1.90;;
40284;SDS011;25997;50.214;19.354;2024-02-26T10:06:16;5.28;;;4.18;;
40284;SDS011;25997;50.214;19.354;2024-02-26T10:09:19;3.55;;;2.72;;
40284;SDS011;25997;50.214;19.354;2024-02-26T10:12:21;3.65;;;2.15;;
40284;SDS011;25997;50.214;19.354;2024-02-26T10:15:27;3.08;;;2.15;;
40284;SDS011;25997;50.214;19.354;2024-02-26T10:18:44;2.90;;;1.77;;
40284;SDS011;25997;50.214;19.354;2024-02-26T10:21:47;2.85;;;1.92;;
40284;SDS011;25997;50.214;19.354;2024-02-26T10:24:49;2.25;;;1.70;;
40284;SDS011;25997;50.214;19.354;2024-02-26T10:27:52;2.30;;;1.55;;
40284;SDS011;25997;50.214;19.354;2024-02-26T10:30:56;2.75;;;1.98;;
40284;SDS011;25997;50.214;19.354;2024-02-26T10:33:58;2.58;;;1.77;;
40284;SDS011;25997;50.214;19.354;2024-02-26T10:37:03;1.98;;;1.58;;
40284;SDS011;25997;50.214;19.354;2024-02-26T10:40:09;4.95;;;2.38;;
40284;SDS011;25997;50.214;19.354;2024-02-26T10:43:12;4.20;;;2.38;;
40284;SDS011;25997;50.214;19.354;2024-02-26T10:46:18;3.20;;;2.40;;
40284;SDS011;25997;50.214;19.354;2024-02-26T10:49:21;3.28;;;2.50;;
40284;SDS011;25997;50.214;19.354;2024-02-26T10:52:24;3.72;;;2.45;;
40284;SDS011;25997;50.214;19.354;2024-02-26T10:55:28;4.47;;;3.97;;
40284;SDS011;25997;50.214;19.354;2024-02-26T10:58:33;3.75;;;2.60;;
40284;SDS011;25997;50.214;19.354;2024-02-26T11:01:39;4.75;;;2.55;;
40284;SDS011;25997;50.214;19.354;2024-02-26T11:04:41;2.65;;;2.35;;
40284;SDS011;25997;50.214;19.354;2024-02-26T11:07:44;3.55;;;2.33;;
40284;SDS011;25997;50.214;19.354;2024-02-26T11:10:48;4.68;;;2.40;;
40284;SDS011;25997;50.214;19.354;2024-02-26T11:13:52;2.95;;;2.03;;
40284;SDS011;25997;50.214;19.354;2024-02-26T11:16:57;2.92;;;2.38;;
40284;SDS011;25997;50.214;19.354;2024-02-26T11:20:01;5.25;;;2.83;;
40284;SDS011;25997;50.214;19.354;2024-02-26T11:23:04;3.55;;;2.65;;
40284;SDS011;25997;50.214;19.354;2024-02-26T11:26:06;3.15;;;2.55;;
40284;SDS011;25997;50.214;19.354;2024-02-26T11:29:11;5.18;;;3.10;;
40284;SDS011;25997;50.214;19.354;2024-02-26T11:32:17;5.57;;;2.65;;
40284;SDS011;25997;50.214;19.354;2024-02-26T11:35:20;6.47;;;3.60;;
40284;SDS011;25997;50.214;19.354;2024-02-26T11:38:23;4.93;;;3.50;;
40284;SDS011;25997;50.214;19.354;2024-02-26T11:41:28;5.28;;;3.42;;
40284;SDS011;25997;50.214;19.354;2024-02-26T11:44:30;5.57;;;3.40;;
40284;SDS011;25997;50.214;19.354;2024-02-26T11:47:34;4.55;;;2.38;;
40284;SDS011;25997;50.214;19.354;2024-02-26T11:50:39;2.40;;;1.90;;
40284;SDS011;25997;50.214;19.354;2024-02-26T11:53:45;4.55;;;2.65;;
40284;SDS011;25997;50.214;19.354;2024-02-26T11:56:50;3.72;;;2.47;;
40284;SDS011;25997;50.214;19.354;2024-02-26T11:59:52;4.55;;;2.80;;
40284;SDS011;25997;50.214;19.354;2024-02-26T12:02:56;4.18;;;2.50;;
40284;SDS011;25997;50.214;19.354;2024-02-26T12:06:01;3.60;;;2.70;;
40284;SDS011;25997;50.214;19.354;2024-02-26T12:09:05;5.72;;;2.70;;
40284;SDS011;25997;50.214;19.354;2024-02-26T12:12:09;4.20;;;2.75;;
40284;SDS011;25997;50.214;19.354;2024-02-26T12:15:15;3.28;;;2.30;;
40284;SDS011;25997;50.214;19.354;2024-02-26T12:18:22;2.80;;;2.00;;
40284;SDS011;25997;50.214;19.354;2024-02-26T12:21:24;4.30;;;2.90;;
40284;SDS011;25997;50.214;19.354;2024-02-26T12:24:27;3.55;;;2.90;;
40284;SDS011;25997;50.214;19.354;2024-02-26T12:27:29;6.50;;;2.20;;
40284;SDS011;25997;50.214;19.354;2024-02-26T12:30:32;3.10;;;2.42;;
40284;SDS011;25997;50.214;19.354;2024-02-26T12:33:36;7.15;;;3.35;;
40284;SDS011;25997;50.214;19.354;2024-02-26T12:36:39;6.90;;;3.42;;
40284;SDS011;25997;50.214;19.354;2024-02-26T12:39:41;4.35;;;3.47;;
40284;SDS011;25997;50.214;19.354;2024-02-26T12:42:44;5.78;;;3.70;;
40284;SDS011;25997;50.214;19.354;2024-02-26T12:45:48;6.25;;;3.92;;
40284;SDS011;25997;50.214;19.354;2024-02-26T12:48:54;6.47;;;4.68;;
40284;SDS011;25997;50.214;19.354;2024-02-26T12:51:58;6.82;;;3.92;;
40284;SDS011;25997;50.214;19.354;2024-02-26T12:55:03;8.73;;;3.90;;
40284;SDS011;25997;50.214;19.354;2024-02-26T12:58:07;5.05;;;3.88;;
40284;SDS011;25997;50.214;19.354;2024-02-26T13:01:14;5.63;;;3.97;;
40284;SDS011;25997;50.214;19.354;2024-02-26T13:04:20;8.05;;;3.58;;
40284;SDS011;25997;50.214;19.354;2024-02-26T13:07:22;5.25;;;4.22;;
40284;SDS011;25997;50.214;19.354;2024-02-26T13:10:25;7.97;;;4.75;;
40284;SDS011;25997;50.214;19.354;2024-02-26T13:13:28;8.55;;;7.28;;
40284;SDS011;25997;50.214;19.354;2024-02-26T13:16:30;9.80;;;7.05;;
40284;SDS011;25997;50.214;19.354;2024-02-26T13:19:35;8.65;;;7.25;;
40284;SDS011;25997;50.214;19.354;2024-02-26T13:22:37;11.45;;;7.65;;
40284;SDS011;25997;50.214;19.354;2024-02-26T13:25:40;13.63;;;9.80;;
40284;SDS011;25997;50.214;19.354;2024-02-26T13:28:42;13.38;;;9.68;;
40284;SDS011;25997;50.214;19.354;2024-02-26T13:31:45;12.45;;;8.10;;
40284;SDS011;25997;50.214;19.354;2024-02-26T13:34:49;10.05;;;7.88;;
40284;SDS011;25997;50.214;19.354;2024-02-26T13:37:52;13.10;;;8.65;;
40284;SDS011;25997;50.214;19.354;2024-02-26T13:40:54;13.02;;;9.88;;
40284;SDS011;25997;50.214;19.354;2024-02-26T13:43:57;12.27;;;7.90;;
40284;SDS011;25997;50.214;19.354;2024-02-26T13:46:59;10.18;;;6.93;;
40284;SDS011;25997;50.214;19.354;2024-02-26T13:50:04;13.32;;;9.45;;
40284;SDS011;25997;50.214;19.354;2024-02-26T13:53:07;15.05;;;9.63;;
40284;SDS011;25997;50.214;19.354;2024-02-26T13:56:09;13.20;;;8.90;;
40284;SDS011;25997;50.214;19.354;2024-02-26T13:59:12;12.90;;;7.97;;
40284;SDS011;25997;50.214;19.354;2024-02-26T14:02:14;14.05;;;8.38;;
40284;SDS011;25997;50.214;19.354;2024-02-26T14:05:19;19.45;;;10.75;;
40284;SDS011;25997;50.214;19.354;2024-02-26T14:08:21;15.30;;;9.15;;
40284;SDS011;25997;50.214;19.354;2024-02-26T14:11:23;14.65;;;8.90;;
40284;SDS011;25997;50.214;19.354;2024-02-26T14:14:27;11.38;;;7.30;;
40284;SDS011;25997;50.214;19.354;2024-02-26T14:17:29;11.82;;;7.65;;
40284;SDS011;25997;50.214;19.354;2024-02-26T14:20:33;6.88;;;5.97;;
40284;SDS011;25997;50.214;19.354;2024-02-26T14:23:35;9.07;;;5.82;;
40284;SDS011;25997;50.214;19.354;2024-02-26T14:26:38;9.30;;;7.38;;
40284;SDS011;25997;50.214;19.354;2024-02-26T14:29:41;10.68;;;7.05;;
40284;SDS011;25997;50.214;19.354;2024-02-26T14:32:44;8.70;;;6.18;;
40284;SDS011;25997;50.214;19.354;2024-02-26T14:35:48;8.20;;;6.55;;
40284;SDS011;25997;50.214;19.354;2024-02-26T14:38:51;7.18;;;5.88;;
40284;SDS011;25997;50.214;19.354;2024-02-26T14:41:53;8.43;;;5.63;;
40284;SDS011;25997;50.214;19.354;2024-02-26T14:44:55;17.23;;;7.18;;
40284;SDS011;25997;50.214;19.354;2024-02-26T14:47:58;9.10;;;7.20;;
40284;SDS011;25997;50.214;19.354;2024-02-26T14:51:02;9.77;;;6.15;;
40284;SDS011;25997;50.214;19.354;2024-02-26T14:54:06;7.45;;;5.35;;
40284;SDS011;25997;50.214;19.354;2024-02-26T14:57:10;5.93;;;5.10;;
40284;SDS011;25997;50.214;19.354;2024-02-26T15:00:12;6.30;;;5.57;;
40284;SDS011;25997;50.214;19.354;2024-02-26T15:03:15;6.05;;;5.18;;
40284;SDS011;25997;50.214;19.354;2024-02-26T15:06:19;9.38;;;8.02;;
40284;SDS011;25997;50.214;19.354;2024-02-26T15:09:21;11.90;;;8.07;;
40284;SDS011;25997;50.214;19.354;2024-02-26T15:12:24;27.45;;;22.92;;
40284;SDS011;25997;50.214;19.354;2024-02-26T15:15:32;19.63;;;17.47;;
40284;SDS011;25997;50.214;19.354;2024-02-26T15:18:36;23.17;;;16.27;;
40284;SDS011;25997;50.214;19.354;2024-02-26T15:21:44;18.35;;;13.93;;
40284;SDS011;25997;50.214;19.354;2024-02-26T15:24:46;22.77;;;16.27;;
40284;SDS011;25997;50.214;19.354;2024-02-26T15:27:48;16.02;;;13.55;;
40284;SDS011;25997;50.214;19.354;2024-02-26T15:30:51;13.57;;;10.38;;
40284;SDS011;25997;50.214;19.354;2024-02-26T15:33:53;17.13;;;13.50;;
40284;SDS011;25997;50.214;19.354;2024-02-26T15:36:57;13.65;;;11.23;;
40284;SDS011;25997;50.214;19.354;2024-02-26T15:39:59;11.90;;;10.68;;
40284;SDS011;25997;50.214;19.354;2024-02-26T15:43:02;14.60;;;12.70;;
40284;SDS011;25997;50.214;19.354;2024-02-26T15:46:05;11.70;;;9.57;;
40284;SDS011;25997;50.214;19.354;2024-02-26T15:49:08;15.00;;;11.65;;
40284;SDS011;25997;50.214;19.354;2024-02-26T15:52:12;12.02;;;10.35;;
40284;SDS011;25997;50.214;19.354;2024-02-26T15:55:14;14.23;;;12.82;;
40284;SDS011;25997;50.214;19.354;2024-02-26T15:58:17;20.85;;;17.58;;
40284;SDS011;25997;50.214;19.354;2024-02-26T16:01:19;14.68;;;12.90;;
40284;SDS011;25997;50.214;19.354;2024-02-26T16:04:22;18.92;;;15.98;;
40284;SDS011;25997;50.214;19.354;2024-02-26T16:07:27;16.83;;;12.80;;
40284;SDS011;25997;50.214;19.354;2024-02-26T16:10:33;18.88;;;16.88;;
40284;SDS011;25997;50.214;19.354;2024-02-26T16:13:36;22.48;;;19.20;;
40284;SDS011;25997;50.214;19.354;2024-02-26T16:16:39;28.35;;;24.02;;
40284;SDS011;25997;50.214;19.354;2024-02-26T16:19:47;24.77;;;22.17;;
40284;SDS011;25997;50.214;19.354;2024-02-26T16:22:51;24.92;;;22.23;;
40284;SDS011;25997;50.214;19.354;2024-02-26T16:25:54;36.55;;;33.17;;
40284;SDS011;25997;50.214;19.354;2024-02-26T16:28:56;40.15;;;36.05;;
40284;SDS011;25997;50.214;19.354;2024-02-26T16:31:58;34.50;;;31.17;;
40284;SDS011;25997;50.214;19.354;2024-02-26T16:35:01;45.63;;;40.80;;
40284;SDS011;25997;50.214;19.354;2024-02-26T16:38:05;83.32;;;74.45;;
40284;SDS011;25997;50.214;19.354;2024-02-26T16:41:08;86.40;;;66.60;;
40284;SDS011;25997;50.214;19.354;2024-02-26T16:44:10;76.07;;;64.93;;
40284;SDS011;25997;50.214;19.354;2024-02-26T16:47:12;33.50;;;30.10;;
40284;SDS011;25997;50.214;19.354;2024-02-26T16:50:15;32.53;;;29.33;;
40284;SDS011;25997;50.214;19.354;2024-02-26T16:53:19;41.80;;;33.80;;
40284;SDS011;25997;50.214;19.354;2024-02-26T16:56:21;46.67;;;34.25;;
40284;SDS011;25997;50.214;19.354;2024-02-26T16:59:23;83.03;;;62.08;;
40284;SDS011;25997;50.214;19.354;2024-02-26T17:02:28;88.65;;;60.20;;
40284;SDS011;25997;50.214;19.354;2024-02-26T17:05:30;81.40;;;59.47;;
40284;SDS011;25997;50.214;19.354;2024-02-26T17:08:34;49.20;;;38.30;;
40284;SDS011;25997;50.214;19.354;2024-02-26T17:11:37;31.60;;;27.92;;
40284;SDS011;25997;50.214;19.354;2024-02-26T17:14:39;106.43;;;65.57;;
40284;SDS011;25997;50.214;19.354;2024-02-26T17:17:42;56.40;;;50.30;;
40284;SDS011;25997;50.214;19.354;2024-02-26T17:20:44;33.97;;;30.38;;
40284;SDS011;25997;50.214;19.354;2024-02-26T17:23:48;33.03;;;27.95;;
40284;SDS011;25997;50.214;19.354;2024-02-26T17:26:50;40.50;;;30.50;;
40284;SDS011;25997;50.214;19.354;2024-02-26T17:29:53;52.05;;;33.53;;
40284;SDS011;25997;50.214;19.354;2024-02-26T17:32:55;30.50;;;25.08;;
40284;SDS011;25997;50.214;19.354;2024-02-26T17:35:57;29.40;;;24.65;;
40284;SDS011;25997;50.214;19.354;2024-02-26T17:39:01;28.63;;;23.33;;
40284;SDS011;25997;50.214;19.354;2024-02-26T17:42:04;32.25;;;23.80;;
40284;SDS011;25997;50.214;19.354;2024-02-26T17:45:07;372.15;;;180.35;;
40284;SDS011;25997;50.214;19.354;2024-02-26T17:48:12;155.00;;;83.93;;
40284;SDS011;25997;50.214;19.354;2024-02-26T17:51:14;47.22;;;36.88;;
40284;SDS011;25997;50.214;19.354;2024-02-26T17:54:18;52.22;;;46.60;;